sensor_id;sensor_type;location;lat;lon;timestamp;temperature;humidity
7588;DHT22;3835;48.850;8.938;2022-12-29T00:00:18;6.90;99.90
7588;DHT22;3835;48.850;8.938;2022-12-29T00:02:44;6.90;99.90
7588;DHT22;3835;48.850;8.938;2022-12-29T00:05:11;7.00;99.90
7588;DHT22;3835;48.850;8.938;2022-12-29T00:07:38;7.10;99.90
7588;DHT22;3835;48.850;8.938;2022-12-29T00:10:06;6.90;99.90
7588;DHT22;3835;48.850;8.938;2022-12-29T00:12:33;7.00;99.90
7588;DHT22;3835;48.850;8.938;2022-12-29T00:15:15;7.00;99.90
7588;DHT22;3835;48.850;8.938;2022-12-29T00:17:59;7.00;99.90
7588;DHT22;3835;48.850;8.938;2022-12-29T00:20:26;7.00;99.90
7588;DHT22;3835;48.850;8.938;2022-12-29T00:23:10;7.10;99.90
7588;DHT22;3835;48.850;8.938;2022-12-29T00:25:54;7.10;99.90
7588;DHT22;3835;48.850;8.938;2022-12-29T00:28:35;7.20;99.90
7588;DHT22;3835;48.850;8.938;2022-12-29T00:31:21;7.20;99.90
7588;DHT22;3835;48.850;8.938;2022-12-29T00:34:08;7.30;99.90
7588;DHT22;3835;48.850;8.938;2022-12-29T00:36:53;7.30;99.90
7588;DHT22;3835;48.850;8.938;2022-12-29T00:39:20;7.40;99.90
7588;DHT22;3835;48.850;8.938;2022-12-29T00:42:04;7.40;99.90
7588;DHT22;3835;48.850;8.938;2022-12-29T00:44:49;7.40;99.90
7588;DHT22;3835;48.850;8.938;2022-12-29T00:47:17;7.40;99.90
7588;DHT22;3835;48.850;8.938;2022-12-29T00:49:44;7.40;99.90
7588;DHT22;3835;48.850;8.938;2022-12-29T00:52:11;7.40;99.90
7588;DHT22;3835;48.850;8.938;2022-12-29T00:54:40;7.40;99.90
7588;DHT22;3835;48.850;8.938;2022-12-29T00:57:08;7.50;99.90
7588;DHT22;3835;48.850;8.938;2022-12-29T00:59:36;7.50;99.90
7588;DHT22;3835;48.850;8.938;2022-12-29T01:02:03;7.50;99.90
7588;DHT22;3835;48.850;8.938;2022-12-29T01:04:31;7.50;99.90
7588;DHT22;3835;48.850;8.938;2022-12-29T01:06:58;7.50;99.90
7588;DHT22;3835;48.850;8.938;2022-12-29T01:09:25;7.50;99.90
7588;DHT22;3835;48.850;8.938;2022-12-29T01:12:10;7.60;99.90
7588;DHT22;3835;48.850;8.938;2022-12-29T01:14:37;7.60;99.90
7588;DHT22;3835;48.850;8.938;2022-12-29T01:17:05;7.60;99.90
7588;DHT22;3835;48.850;8.938;2022-12-29T01:19:33;7.60;99.90
7588;DHT22;3835;48.850;8.938;2022-12-29T01:22:00;7.60;99.90
7588;DHT22;3835;48.850;8.938;2022-12-29T01:24:27;7.60;99.90
7588;DHT22;3835;48.850;8.938;2022-12-29T01:26:54;7.50;99.90
7588;DHT22;3835;48.850;8.938;2022-12-29T01:29:20;7.60;99.90
7588;DHT22;3835;48.850;8.938;2022-12-29T01:31:47;7.60;99.90
7588;DHT22;3835;48.850;8.938;2022-12-29T01:34:15;7.60;99.90
7588;DHT22;3835;48.850;8.938;2022-12-29T01:36:43;7.60;99.90
7588;DHT22;3835;48.850;8.938;2022-12-29T01:39:10;7.60;99.90
7588;DHT22;3835;48.850;8.938;2022-12-29T01:41:36;7.60;99.90
7588;DHT22;3835;48.850;8.938;2022-12-29T01:47:03;7.60;99.90
7588;DHT22;3835;48.850;8.938;2022-12-29T01:49:30;7.60;99.90
7588;DHT22;3835;48.850;8.938;2022-12-29T01:52:01;7.70;99.90
7588;DHT22;3835;48.850;8.938;2022-12-29T01:54:31;7.70;99.90
7588;DHT22;3835;48.850;8.938;2022-12-29T01:57:01;7.70;99.90
7588;DHT22;3835;48.850;8.938;2022-12-29T01:59:32;7.70;99.90
7588;DHT22;3835;48.850;8.938;2022-12-29T02:02:01;7.70;99.90
7588;DHT22;3835;48.850;8.938;2022-12-29T02:04:30;7.70;99.90
7588;DHT22;3835;48.850;8.938;2022-12-29T02:07:03;7.80;99.90
7588;DHT22;3835;48.850;8.938;2022-12-29T02:09:30;8.00;99.90
7588;DHT22;3835;48.850;8.938;2022-12-29T02:11:58;8.50;99.90
7588;DHT22;3835;48.850;8.938;2022-12-29T02:14:25;8.70;99.90
7588;DHT22;3835;48.850;8.938;2022-12-29T02:17:01;8.90;99.90
7588;DHT22;3835;48.850;8.938;2022-12-29T02:22:34;9.30;99.90
7588;DHT22;3835;48.850;8.938;2022-12-29T02:25:32;9.40;99.90
7588;DHT22;3835;48.850;8.938;2022-12-29T02:28:41;9.50;99.90
7588;DHT22;3835;48.850;8.938;2022-12-29T02:31:17;9.70;99.90
7588;DHT22;3835;48.850;8.938;2022-12-29T02:34:00;9.80;99.90
7588;DHT22;3835;48.850;8.938;2022-12-29T02:36:35;9.90;99.90
7588;DHT22;3835;48.850;8.938;2022-12-29T02:39:10;9.90;99.90
7588;DHT22;3835;48.850;8.938;2022-12-29T02:41:45;9.90;99.90
7588;DHT22;3835;48.850;8.938;2022-12-29T02:44:18;9.90;99.90
7588;DHT22;3835;48.850;8.938;2022-12-29T02:46:54;9.90;99.90
7588;DHT22;3835;48.850;8.938;2022-12-29T02:49:28;9.90;99.90
7588;DHT22;3835;48.850;8.938;2022-12-29T02:52:01;10.00;99.90
7588;DHT22;3835;48.850;8.938;2022-12-29T02:54:29;10.20;99.90
7588;DHT22;3835;48.850;8.938;2022-12-29T02:57:11;10.30;99.90
7588;DHT22;3835;48.850;8.938;2022-12-29T02:59:38;10.30;99.90
7588;DHT22;3835;48.850;8.938;2022-12-29T03:02:22;10.30;99.90
7588;DHT22;3835;48.850;8.938;2022-12-29T03:05:04;10.20;99.90
7588;DHT22;3835;48.850;8.938;2022-12-29T03:07:40;10.20;99.90
7588;DHT22;3835;48.850;8.938;2022-12-29T03:10:17;10.20;99.90
7588;DHT22;3835;48.850;8.938;2022-12-29T03:12:48;10.20;99.90
7588;DHT22;3835;48.850;8.938;2022-12-29T03:15:36;10.20;99.90
7588;DHT22;3835;48.850;8.938;2022-12-29T03:18:33;10.10;99.90
7588;DHT22;3835;48.850;8.938;2022-12-29T03:21:05;10.10;99.90
7588;DHT22;3835;48.850;8.938;2022-12-29T03:23:34;10.20;99.90
7588;DHT22;3835;48.850;8.938;2022-12-29T03:26:05;10.20;99.90
7588;DHT22;3835;48.850;8.938;2022-12-29T03:28:37;10.30;99.90
7588;DHT22;3835;48.850;8.938;2022-12-29T03:31:06;10.40;99.90
7588;DHT22;3835;48.850;8.938;2022-12-29T03:33:36;10.30;99.90
7588;DHT22;3835;48.850;8.938;2022-12-29T03:36:07;10.30;99.90
7588;DHT22;3835;48.850;8.938;2022-12-29T03:38:40;10.30;99.90
7588;DHT22;3835;48.850;8.938;2022-12-29T03:41:11;10.30;99.90
7588;DHT22;3835;48.850;8.938;2022-12-29T03:43:39;10.30;99.90
7588;DHT22;3835;48.850;8.938;2022-12-29T03:46:06;10.30;99.90
7588;DHT22;3835;48.850;8.938;2022-12-29T03:48:33;10.20;99.90
7588;DHT22;3835;48.850;8.938;2022-12-29T03:51:01;10.20;99.90
7588;DHT22;3835;48.850;8.938;2022-12-29T03:53:27;10.10;99.90
7588;DHT22;3835;48.850;8.938;2022-12-29T03:55:54;10.10;99.90
7588;DHT22;3835;48.850;8.938;2022-12-29T03:58:21;10.00;99.90
7588;DHT22;3835;48.850;8.938;2022-12-29T04:00:48;9.90;99.90
7588;DHT22;3835;48.850;8.938;2022-12-29T04:03:14;9.80;99.90
7588;DHT22;3835;48.850;8.938;2022-12-29T04:05:41;9.70;99.90
7588;DHT22;3835;48.850;8.938;2022-12-29T04:08:09;9.70;99.90
7588;DHT22;3835;48.850;8.938;2022-12-29T04:10:36;9.60;99.90
7588;DHT22;3835;48.850;8.938;2022-12-29T04:13:03;9.70;99.90
7588;DHT22;3835;48.850;8.938;2022-12-29T04:15:29;9.70;99.90
7588;DHT22;3835;48.850;8.938;2022-12-29T04:17:56;9.80;99.90
7588;DHT22;3835;48.850;8.938;2022-12-29T04:20:23;9.90;99.90
7588;DHT22;3835;48.850;8.938;2022-12-29T04:23:08;9.90;99.90
7588;DHT22;3835;48.850;8.938;2022-12-29T04:25:35;9.90;99.90
7588;DHT22;3835;48.850;8.938;2022-12-29T04:28:02;10.00;99.90
7588;DHT22;3835;48.850;8.938;2022-12-29T04:30:29;10.00;99.90
7588;DHT22;3835;48.850;8.938;2022-12-29T04:32:56;9.90;99.90
7588;DHT22;3835;48.850;8.938;2022-12-29T04:35:22;9.90;99.90
7588;DHT22;3835;48.850;8.938;2022-12-29T04:37:49;9.90;99.90
7588;DHT22;3835;48.850;8.938;2022-12-29T04:40:17;9.80;99.90
7588;DHT22;3835;48.850;8.938;2022-12-29T04:42:44;9.80;99.90
7588;DHT22;3835;48.850;8.938;2022-12-29T04:45:11;9.70;99.90
7588;DHT22;3835;48.850;8.938;2022-12-29T04:47:38;9.70;99.90
7588;DHT22;3835;48.850;8.938;2022-12-29T04:50:05;9.70;99.90
7588;DHT22;3835;48.850;8.938;2022-12-29T04:52:32;9.70;99.90
7588;DHT22;3835;48.850;8.938;2022-12-29T04:54:59;9.70;99.90
7588;DHT22;3835;48.850;8.938;2022-12-29T04:57:27;9.60;99.90
7588;DHT22;3835;48.850;8.938;2022-12-29T04:59:54;9.60;99.90
7588;DHT22;3835;48.850;8.938;2022-12-29T05:02:20;9.60;99.90
7588;DHT22;3835;48.850;8.938;2022-12-29T05:04:47;9.50;99.90
7588;DHT22;3835;48.850;8.938;2022-12-29T05:07:14;9.50;99.90
7588;DHT22;3835;48.850;8.938;2022-12-29T05:09:41;9.50;99.90
7588;DHT22;3835;48.850;8.938;2022-12-29T05:12:07;9.40;99.90
7588;DHT22;3835;48.850;8.938;2022-12-29T05:14:35;9.30;99.90
7588;DHT22;3835;48.850;8.938;2022-12-29T05:17:02;9.40;99.90
7588;DHT22;3835;48.850;8.938;2022-12-29T05:19:29;9.30;99.90
7588;DHT22;3835;48.850;8.938;2022-12-29T05:21:56;9.40;99.90
7588;DHT22;3835;48.850;8.938;2022-12-29T05:24:23;9.30;99.90
7588;DHT22;3835;48.850;8.938;2022-12-29T05:26:50;9.30;99.90
7588;DHT22;3835;48.850;8.938;2022-12-29T05:29:17;9.30;99.90
7588;DHT22;3835;48.850;8.938;2022-12-29T05:31:45;9.30;99.90
7588;DHT22;3835;48.850;8.938;2022-12-29T05:34:12;9.40;99.90
7588;DHT22;3835;48.850;8.938;2022-12-29T05:36:39;9.50;99.90
7588;DHT22;3835;48.850;8.938;2022-12-29T05:39:05;9.50;99.90
7588;DHT22;3835;48.850;8.938;2022-12-29T05:41:33;9.50;99.90
7588;DHT22;3835;48.850;8.938;2022-12-29T05:44:00;9.50;99.90
7588;DHT22;3835;48.850;8.938;2022-12-29T05:46:27;9.60;99.90
7588;DHT22;3835;48.850;8.938;2022-12-29T05:48:55;9.70;99.90
7588;DHT22;3835;48.850;8.938;2022-12-29T05:51:22;9.80;99.90
7588;DHT22;3835;48.850;8.938;2022-12-29T05:53:49;9.70;99.90
7588;DHT22;3835;48.850;8.938;2022-12-29T05:56:16;9.70;99.90
7588;DHT22;3835;48.850;8.938;2022-12-29T05:58:43;9.60;99.90
7588;DHT22;3835;48.850;8.938;2022-12-29T06:01:09;9.40;99.90
7588;DHT22;3835;48.850;8.938;2022-12-29T06:03:36;9.30;99.90
7588;DHT22;3835;48.850;8.938;2022-12-29T06:06:05;9.20;99.90
7588;DHT22;3835;48.850;8.938;2022-12-29T06:08:31;9.20;99.90
7588;DHT22;3835;48.850;8.938;2022-12-29T06:10:58;9.10;99.90
7588;DHT22;3835;48.850;8.938;2022-12-29T06:13:25;9.10;99.90
7588;DHT22;3835;48.850;8.938;2022-12-29T06:15:53;9.10;99.90
7588;DHT22;3835;48.850;8.938;2022-12-29T06:18:20;9.00;99.90
7588;DHT22;3835;48.850;8.938;2022-12-29T06:20:47;9.00;99.90
7588;DHT22;3835;48.850;8.938;2022-12-29T06:23:15;8.90;99.90
7588;DHT22;3835;48.850;8.938;2022-12-29T06:25:43;9.00;99.90
7588;DHT22;3835;48.850;8.938;2022-12-29T06:28:10;9.00;99.90
7588;DHT22;3835;48.850;8.938;2022-12-29T06:30:37;9.00;99.90
7588;DHT22;3835;48.850;8.938;2022-12-29T06:33:04;9.00;99.90
7588;DHT22;3835;48.850;8.938;2022-12-29T06:35:33;9.00;99.90
7588;DHT22;3835;48.850;8.938;2022-12-29T06:37:59;9.00;99.90
7588;DHT22;3835;48.850;8.938;2022-12-29T06:40:28;9.10;99.90
7588;DHT22;3835;48.850;8.938;2022-12-29T06:42:54;9.10;99.90
7588;DHT22;3835;48.850;8.938;2022-12-29T06:45:21;9.10;99.90
7588;DHT22;3835;48.850;8.938;2022-12-29T06:47:48;9.10;99.90
7588;DHT22;3835;48.850;8.938;2022-12-29T06:50:15;9.10;99.90
7588;DHT22;3835;48.850;8.938;2022-12-29T06:52:42;9.10;99.90
7588;DHT22;3835;48.850;8.938;2022-12-29T06:55:08;9.10;99.90
7588;DHT22;3835;48.850;8.938;2022-12-29T06:57:37;9.10;99.90
7588;DHT22;3835;48.850;8.938;2022-12-29T07:00:04;9.10;99.90
7588;DHT22;3835;48.850;8.938;2022-12-29T07:02:31;9.00;99.90
7588;DHT22;3835;48.850;8.938;2022-12-29T07:04:58;9.00;99.90
7588;DHT22;3835;48.850;8.938;2022-12-29T07:07:25;9.00;99.90
7588;DHT22;3835;48.850;8.938;2022-12-29T07:09:51;8.90;99.90
7588;DHT22;3835;48.850;8.938;2022-12-29T07:12:18;9.00;99.90
7588;DHT22;3835;48.850;8.938;2022-12-29T07:14:46;9.00;99.90
7588;DHT22;3835;48.850;8.938;2022-12-29T07:17:13;9.10;99.90
7588;DHT22;3835;48.850;8.938;2022-12-29T07:19:40;9.20;99.90
7588;DHT22;3835;48.850;8.938;2022-12-29T07:22:06;9.20;99.90
7588;DHT22;3835;48.850;8.938;2022-12-29T07:24:33;9.30;99.90
7588;DHT22;3835;48.850;8.938;2022-12-29T07:27:00;9.40;99.90
7588;DHT22;3835;48.850;8.938;2022-12-29T07:29:27;9.40;99.90
7588;DHT22;3835;48.850;8.938;2022-12-29T07:31:55;9.60;99.90
7588;DHT22;3835;48.850;8.938;2022-12-29T07:34:22;9.40;99.90
7588;DHT22;3835;48.850;8.938;2022-12-29T07:36:48;9.70;99.90
7588;DHT22;3835;48.850;8.938;2022-12-29T07:39:15;9.70;99.90
7588;DHT22;3835;48.850;8.938;2022-12-29T07:41:42;9.70;99.90
7588;DHT22;3835;48.850;8.938;2022-12-29T07:44:09;9.70;99.90
7588;DHT22;3835;48.850;8.938;2022-12-29T07:46:35;9.70;99.90
7588;DHT22;3835;48.850;8.938;2022-12-29T07:49:03;9.70;99.90
7588;DHT22;3835;48.850;8.938;2022-12-29T07:51:30;9.70;99.90
7588;DHT22;3835;48.850;8.938;2022-12-29T07:53:58;9.80;99.90
7588;DHT22;3835;48.850;8.938;2022-12-29T07:56:26;9.80;99.90
7588;DHT22;3835;48.850;8.938;2022-12-29T07:58:53;9.80;99.90
7588;DHT22;3835;48.850;8.938;2022-12-29T08:01:19;9.70;99.90
7588;DHT22;3835;48.850;8.938;2022-12-29T08:03:46;9.80;99.90
7588;DHT22;3835;48.850;8.938;2022-12-29T08:06:15;9.80;99.90
7588;DHT22;3835;48.850;8.938;2022-12-29T08:08:41;9.80;99.90
7588;DHT22;3835;48.850;8.938;2022-12-29T08:11:08;9.80;99.90
7588;DHT22;3835;48.850;8.938;2022-12-29T08:13:35;9.80;99.90
7588;DHT22;3835;48.850;8.938;2022-12-29T08:16:02;9.80;99.90
7588;DHT22;3835;48.850;8.938;2022-12-29T08:18:28;9.90;99.90
7588;DHT22;3835;48.850;8.938;2022-12-29T08:20:55;9.90;99.90
7588;DHT22;3835;48.850;8.938;2022-12-29T08:23:23;9.90;99.90
7588;DHT22;3835;48.850;8.938;2022-12-29T08:25:57;9.90;99.90
7588;DHT22;3835;48.850;8.938;2022-12-29T08:28:23;9.90;99.90
7588;DHT22;3835;48.850;8.938;2022-12-29T08:30:50;9.90;99.90
7588;DHT22;3835;48.850;8.938;2022-12-29T08:33:17;9.90;99.90
7588;DHT22;3835;48.850;8.938;2022-12-29T08:35:44;10.00;99.90
7588;DHT22;3835;48.850;8.938;2022-12-29T08:38:11;10.00;99.90
7588;DHT22;3835;48.850;8.938;2022-12-29T08:40:39;10.00;99.90
7588;DHT22;3835;48.850;8.938;2022-12-29T08:43:06;10.10;99.90
7588;DHT22;3835;48.850;8.938;2022-12-29T08:45:32;10.20;99.90
7588;DHT22;3835;48.850;8.938;2022-12-29T08:47:59;10.20;99.90
7588;DHT22;3835;48.850;8.938;2022-12-29T08:50:26;10.30;99.90
7588;DHT22;3835;48.850;8.938;2022-12-29T08:52:53;10.30;99.90
7588;DHT22;3835;48.850;8.938;2022-12-29T08:55:19;10.50;99.90
7588;DHT22;3835;48.850;8.938;2022-12-29T08:57:47;10.70;99.90
7588;DHT22;3835;48.850;8.938;2022-12-29T09:00:15;10.90;99.90
7588;DHT22;3835;48.850;8.938;2022-12-29T09:02:41;11.10;99.90
7588;DHT22;3835;48.850;8.938;2022-12-29T09:05:08;11.40;99.90
7588;DHT22;3835;48.850;8.938;2022-12-29T09:07:36;11.60;99.90
7588;DHT22;3835;48.850;8.938;2022-12-29T09:10:04;11.70;99.90
7588;DHT22;3835;48.850;8.938;2022-12-29T09:12:31;11.80;99.90
7588;DHT22;3835;48.850;8.938;2022-12-29T09:15:00;11.80;99.90
7588;DHT22;3835;48.850;8.938;2022-12-29T09:17:27;11.80;99.90
7588;DHT22;3835;48.850;8.938;2022-12-29T09:20:11;11.90;99.90
7588;DHT22;3835;48.850;8.938;2022-12-29T09:22:38;11.90;99.90
7588;DHT22;3835;48.850;8.938;2022-12-29T09:25:05;12.00;99.90
7588;DHT22;3835;48.850;8.938;2022-12-29T09:27:32;12.00;99.90
7588;DHT22;3835;48.850;8.938;2022-12-29T09:30:00;12.00;99.90
7588;DHT22;3835;48.850;8.938;2022-12-29T09:32:27;12.10;99.90
7588;DHT22;3835;48.850;8.938;2022-12-29T09:34:54;12.20;99.90
7588;DHT22;3835;48.850;8.938;2022-12-29T09:37:21;12.30;99.90
7588;DHT22;3835;48.850;8.938;2022-12-29T09:39:47;12.30;99.90
7588;DHT22;3835;48.850;8.938;2022-12-29T09:42:19;12.30;99.90
7588;DHT22;3835;48.850;8.938;2022-12-29T09:45:00;12.40;99.90
7588;DHT22;3835;48.850;8.938;2022-12-29T09:47:30;12.50;99.90
7588;DHT22;3835;48.850;8.938;2022-12-29T09:50:02;12.50;99.90
7588;DHT22;3835;48.850;8.938;2022-12-29T09:52:31;12.60;99.90
7588;DHT22;3835;48.850;8.938;2022-12-29T09:55:01;12.60;99.90
7588;DHT22;3835;48.850;8.938;2022-12-29T09:57:34;12.60;99.90
7588;DHT22;3835;48.850;8.938;2022-12-29T10:00:05;12.50;99.90
7588;DHT22;3835;48.850;8.938;2022-12-29T10:02:37;12.50;99.90
7588;DHT22;3835;48.850;8.938;2022-12-29T10:05:14;12.40;99.90
7588;DHT22;3835;48.850;8.938;2022-12-29T10:07:48;12.50;99.90
7588;DHT22;3835;48.850;8.938;2022-12-29T10:10:26;12.50;99.90
7588;DHT22;3835;48.850;8.938;2022-12-29T10:13:04;12.40;99.90
7588;DHT22;3835;48.850;8.938;2022-12-29T10:15:47;12.20;99.90
7588;DHT22;3835;48.850;8.938;2022-12-29T10:18:38;11.80;99.90
7588;DHT22;3835;48.850;8.938;2022-12-29T10:21:15;11.60;99.90
7588;DHT22;3835;48.850;8.938;2022-12-29T10:23:47;11.50;99.90
7588;DHT22;3835;48.850;8.938;2022-12-29T10:26:17;11.50;99.90
7588;DHT22;3835;48.850;8.938;2022-12-29T10:28:47;11.60;99.90
7588;DHT22;3835;48.850;8.938;2022-12-29T10:31:19;11.80;99.90
7588;DHT22;3835;48.850;8.938;2022-12-29T10:33:57;12.00;99.90
7588;DHT22;3835;48.850;8.938;2022-12-29T10:36:29;12.00;99.90
7588;DHT22;3835;48.850;8.938;2022-12-29T10:39:03;12.10;99.90
7588;DHT22;3835;48.850;8.938;2022-12-29T10:41:38;12.20;99.90
7588;DHT22;3835;48.850;8.938;2022-12-29T10:44:09;12.20;99.90
7588;DHT22;3835;48.850;8.938;2022-12-29T10:46:38;12.10;99.90
7588;DHT22;3835;48.850;8.938;2022-12-29T10:49:06;12.20;99.90
7588;DHT22;3835;48.850;8.938;2022-12-29T10:51:41;12.20;99.90
7588;DHT22;3835;48.850;8.938;2022-12-29T10:54:15;12.00;99.90
7588;DHT22;3835;48.850;8.938;2022-12-29T10:56:47;11.90;99.90
7588;DHT22;3835;48.850;8.938;2022-12-29T10:59:20;11.90;99.90
7588;DHT22;3835;48.850;8.938;2022-12-29T11:01:54;12.00;99.90
7588;DHT22;3835;48.850;8.938;2022-12-29T11:04:35;12.10;99.90
7588;DHT22;3835;48.850;8.938;2022-12-29T11:07:07;12.30;99.90
7588;DHT22;3835;48.850;8.938;2022-12-29T11:09:37;12.30;99.90
7588;DHT22;3835;48.850;8.938;2022-12-29T11:12:23;12.50;99.90
7588;DHT22;3835;48.850;8.938;2022-12-29T11:15:05;12.50;99.90
7588;DHT22;3835;48.850;8.938;2022-12-29T11:17:44;12.50;99.90
7588;DHT22;3835;48.850;8.938;2022-12-29T11:20:30;12.70;99.90
7588;DHT22;3835;48.850;8.938;2022-12-29T11:22:58;12.80;99.90
7588;DHT22;3835;48.850;8.938;2022-12-29T11:25:26;12.90;99.90
7588;DHT22;3835;48.850;8.938;2022-12-29T11:27:58;12.90;99.90
7588;DHT22;3835;48.850;8.938;2022-12-29T11:30:28;12.70;99.90
7588;DHT22;3835;48.850;8.938;2022-12-29T11:32:56;12.70;99.90
7588;DHT22;3835;48.850;8.938;2022-12-29T11:35:33;12.50;99.90
7588;DHT22;3835;48.850;8.938;2022-12-29T11:38:01;12.50;99.90
7588;DHT22;3835;48.850;8.938;2022-12-29T11:40:28;12.50;99.90
7588;DHT22;3835;48.850;8.938;2022-12-29T11:42:57;12.30;99.90
7588;DHT22;3835;48.850;8.938;2022-12-29T11:45:26;12.20;99.90
7588;DHT22;3835;48.850;8.938;2022-12-29T11:47:56;12.10;99.90
7588;DHT22;3835;48.850;8.938;2022-12-29T11:50:26;12.10;99.90
7588;DHT22;3835;48.850;8.938;2022-12-29T11:53:02;12.00;99.90
7588;DHT22;3835;48.850;8.938;2022-12-29T11:55:30;12.00;99.90
7588;DHT22;3835;48.850;8.938;2022-12-29T11:57:58;12.00;99.90
7588;DHT22;3835;48.850;8.938;2022-12-29T12:00:29;12.00;99.90
7588;DHT22;3835;48.850;8.938;2022-12-29T12:02:59;12.10;99.90
7588;DHT22;3835;48.850;8.938;2022-12-29T12:05:36;11.90;99.90
7588;DHT22;3835;48.850;8.938;2022-12-29T12:08:13;11.90;99.90
7588;DHT22;3835;48.850;8.938;2022-12-29T12:10:46;11.80;99.90
7588;DHT22;3835;48.850;8.938;2022-12-29T12:13:24;11.80;99.90
7588;DHT22;3835;48.850;8.938;2022-12-29T12:15:56;11.80;99.90
7588;DHT22;3835;48.850;8.938;2022-12-29T12:18:34;11.60;99.90
7588;DHT22;3835;48.850;8.938;2022-12-29T12:21:12;11.40;99.90
7588;DHT22;3835;48.850;8.938;2022-12-29T12:23:57;11.40;99.90
7588;DHT22;3835;48.850;8.938;2022-12-29T12:26:32;11.40;99.90
7588;DHT22;3835;48.850;8.938;2022-12-29T12:29:04;11.30;99.90
7588;DHT22;3835;48.850;8.938;2022-12-29T12:31:43;11.40;99.90
7588;DHT22;3835;48.850;8.938;2022-12-29T12:34:17;11.60;99.90
7588;DHT22;3835;48.850;8.938;2022-12-29T12:37:14;11.80;99.90
7588;DHT22;3835;48.850;8.938;2022-12-29T12:39:49;11.90;99.90
7588;DHT22;3835;48.850;8.938;2022-12-29T12:42:31;12.00;99.90
7588;DHT22;3835;48.850;8.938;2022-12-29T12:48:02;12.10;99.90
7588;DHT22;3835;48.850;8.938;2022-12-29T12:50:46;12.10;99.90
7588;DHT22;3835;48.850;8.938;2022-12-29T12:53:29;12.10;99.90
7588;DHT22;3835;48.850;8.938;2022-12-29T12:56:15;12.10;99.90
7588;DHT22;3835;48.850;8.938;2022-12-29T12:58:51;12.10;99.90
7588;DHT22;3835;48.850;8.938;2022-12-29T13:01:30;12.10;99.90
7588;DHT22;3835;48.850;8.938;2022-12-29T13:04:28;12.00;99.90
7588;DHT22;3835;48.850;8.938;2022-12-29T13:07:07;12.00;99.90
7588;DHT22;3835;48.850;8.938;2022-12-29T13:09:52;12.00;99.90
7588;DHT22;3835;48.850;8.938;2022-12-29T13:12:33;12.00;99.90
7588;DHT22;3835;48.850;8.938;2022-12-29T13:15:15;12.00;99.90
7588;DHT22;3835;48.850;8.938;2022-12-29T13:17:51;12.10;99.90
7588;DHT22;3835;48.850;8.938;2022-12-29T13:20:25;12.20;99.90
7588;DHT22;3835;48.850;8.938;2022-12-29T13:22:57;12.20;99.90
7588;DHT22;3835;48.850;8.938;2022-12-29T13:25:30;12.20;99.90
7588;DHT22;3835;48.850;8.938;2022-12-29T13:28:05;12.10;99.90
7588;DHT22;3835;48.850;8.938;2022-12-29T13:30:40;12.00;99.90
7588;DHT22;3835;48.850;8.938;2022-12-29T13:33:18;12.00;99.90
7588;DHT22;3835;48.850;8.938;2022-12-29T13:35:55;11.90;99.90
7588;DHT22;3835;48.850;8.938;2022-12-29T13:38:25;11.80;99.90
7588;DHT22;3835;48.850;8.938;2022-12-29T13:40:56;11.70;99.90
7588;DHT22;3835;48.850;8.938;2022-12-29T13:43:29;11.60;99.90
7588;DHT22;3835;48.850;8.938;2022-12-29T13:45:59;11.60;99.90
7588;DHT22;3835;48.850;8.938;2022-12-29T13:48:36;11.70;99.90
7588;DHT22;3835;48.850;8.938;2022-12-29T13:51:04;11.60;99.90
7588;DHT22;3835;48.850;8.938;2022-12-29T13:53:37;11.50;99.90
7588;DHT22;3835;48.850;8.938;2022-12-29T13:56:12;11.40;99.90
7588;DHT22;3835;48.850;8.938;2022-12-29T13:58:47;11.50;99.90
7588;DHT22;3835;48.850;8.938;2022-12-29T14:01:18;11.50;99.90
7588;DHT22;3835;48.850;8.938;2022-12-29T14:03:49;11.50;99.90
7588;DHT22;3835;48.850;8.938;2022-12-29T14:06:21;11.50;99.90
7588;DHT22;3835;48.850;8.938;2022-12-29T14:08:52;11.40;99.90
7588;DHT22;3835;48.850;8.938;2022-12-29T14:11:22;11.40;99.90
7588;DHT22;3835;48.850;8.938;2022-12-29T14:13:51;11.30;99.90
7588;DHT22;3835;48.850;8.938;2022-12-29T14:16:28;11.20;99.90
7588;DHT22;3835;48.850;8.938;2022-12-29T14:18:56;11.20;99.90
7588;DHT22;3835;48.850;8.938;2022-12-29T14:21:29;11.20;99.90
7588;DHT22;3835;48.850;8.938;2022-12-29T14:24:40;11.20;99.90
7588;DHT22;3835;48.850;8.938;2022-12-29T14:27:51;11.20;99.90
7588;DHT22;3835;48.850;8.938;2022-12-29T14:33:25;11.10;99.90
7588;DHT22;3835;48.850;8.938;2022-12-29T14:35:53;11.10;99.90
7588;DHT22;3835;48.850;8.938;2022-12-29T14:38:23;11.00;99.90
7588;DHT22;3835;48.850;8.938;2022-12-29T14:40:51;11.00;99.90
7588;DHT22;3835;48.850;8.938;2022-12-29T14:43:25;11.00;99.90
7588;DHT22;3835;48.850;8.938;2022-12-29T14:45:57;11.00;99.90
7588;DHT22;3835;48.850;8.938;2022-12-29T14:48:37;10.90;99.90
7588;DHT22;3835;48.850;8.938;2022-12-29T14:51:18;10.90;99.90
7588;DHT22;3835;48.850;8.938;2022-12-29T14:53:48;10.80;99.90
7588;DHT22;3835;48.850;8.938;2022-12-29T14:56:16;10.80;99.90
7588;DHT22;3835;48.850;8.938;2022-12-29T14:58:47;10.70;99.90
7588;DHT22;3835;48.850;8.938;2022-12-29T15:01:23;10.70;99.90
7588;DHT22;3835;48.850;8.938;2022-12-29T15:03:55;10.70;99.90
7588;DHT22;3835;48.850;8.938;2022-12-29T15:06:25;10.60;99.90
7588;DHT22;3835;48.850;8.938;2022-12-29T15:09:00;10.60;99.90
7588;DHT22;3835;48.850;8.938;2022-12-29T15:11:42;10.60;99.90
7588;DHT22;3835;48.850;8.938;2022-12-29T15:14:32;10.50;99.90
7588;DHT22;3835;48.850;8.938;2022-12-29T15:17:00;10.50;99.90
7588;DHT22;3835;48.850;8.938;2022-12-29T15:19:29;10.50;99.90
7588;DHT22;3835;48.850;8.938;2022-12-29T15:21:56;10.60;99.90
7588;DHT22;3835;48.850;8.938;2022-12-29T15:24:24;10.60;99.90
7588;DHT22;3835;48.850;8.938;2022-12-29T15:26:52;10.10;99.90
7588;DHT22;3835;48.850;8.938;2022-12-29T15:29:36;9.50;99.90
7588;DHT22;3835;48.850;8.938;2022-12-29T15:32:17;9.10;99.90
7588;DHT22;3835;48.850;8.938;2022-12-29T15:34:47;8.90;99.90
7588;DHT22;3835;48.850;8.938;2022-12-29T15:37:18;8.90;99.90
7588;DHT22;3835;48.850;8.938;2022-12-29T15:39:45;8.90;99.90
7588;DHT22;3835;48.850;8.938;2022-12-29T15:45:04;8.70;99.90
7588;DHT22;3835;48.850;8.938;2022-12-29T15:47:32;8.70;99.90
7588;DHT22;3835;48.850;8.938;2022-12-29T15:50:05;8.70;99.90
7588;DHT22;3835;48.850;8.938;2022-12-29T15:52:33;8.70;99.90
7588;DHT22;3835;48.850;8.938;2022-12-29T15:55:01;8.70;99.90
7588;DHT22;3835;48.850;8.938;2022-12-29T15:57:30;8.60;99.90
7588;DHT22;3835;48.850;8.938;2022-12-29T15:59:58;8.60;99.90
7588;DHT22;3835;48.850;8.938;2022-12-29T16:02:26;8.60;99.90
7588;DHT22;3835;48.850;8.938;2022-12-29T16:04:54;8.60;99.90
7588;DHT22;3835;48.850;8.938;2022-12-29T16:07:27;8.60;99.90
7588;DHT22;3835;48.850;8.938;2022-12-29T16:09:55;8.50;99.90
7588;DHT22;3835;48.850;8.938;2022-12-29T16:12:24;8.50;99.90
7588;DHT22;3835;48.850;8.938;2022-12-29T16:14:55;8.50;99.90
7588;DHT22;3835;48.850;8.938;2022-12-29T16:17:25;8.40;99.90
7588;DHT22;3835;48.850;8.938;2022-12-29T16:19:54;8.40;99.90
7588;DHT22;3835;48.850;8.938;2022-12-29T16:22:28;8.40;99.90
7588;DHT22;3835;48.850;8.938;2022-12-29T16:24:59;8.40;99.90
7588;DHT22;3835;48.850;8.938;2022-12-29T16:27:32;8.40;99.90
7588;DHT22;3835;48.850;8.938;2022-12-29T16:30:03;8.40;99.90
7588;DHT22;3835;48.850;8.938;2022-12-29T16:32:31;8.40;99.90
7588;DHT22;3835;48.850;8.938;2022-12-29T16:35:11;8.40;99.90
7588;DHT22;3835;48.850;8.938;2022-12-29T16:37:40;8.40;99.90
7588;DHT22;3835;48.850;8.938;2022-12-29T16:40:28;8.40;99.90
7588;DHT22;3835;48.850;8.938;2022-12-29T16:42:58;8.40;99.90
7588;DHT22;3835;48.850;8.938;2022-12-29T16:48:34;8.40;99.90
7588;DHT22;3835;48.850;8.938;2022-12-29T16:51:03;8.40;99.90
7588;DHT22;3835;48.850;8.938;2022-12-29T16:53:35;8.40;99.90